createdAt,value
2023-02-08T00:02:18.080Z,16.28
2023-02-08T00:05:19.635Z,16.27
2023-02-08T00:08:21.208Z,16.27
2023-02-08T00:11:22.919Z,16.26
2023-02-08T00:14:24.455Z,16.27
2023-02-08T00:17:26.082Z,16.25
2023-02-08T00:20:28.021Z,16.25
2023-02-08T00:23:29.522Z,16.23
2023-02-08T00:26:31.010Z,16.24
2023-02-08T00:29:32.524Z,16.23
2023-02-08T00:32:34.083Z,16.22
2023-02-08T00:35:36.244Z,16.22
2023-02-08T00:38:38.050Z,16.21
2023-02-08T00:41:39.505Z,16.22
2023-02-08T00:44:41.015Z,16.21
2023-02-08T00:47:42.504Z,16.20
2023-02-08T00:50:44.055Z,16.19
2023-02-08T00:53:46.411Z,16.18
2023-02-08T00:56:48.101Z,16.17
2023-02-08T00:59:49.609Z,16.17
2023-02-08T01:02:51.138Z,16.14
2023-02-08T01:05:53.176Z,16.13
2023-02-08T01:08:54.676Z,16.12
2023-02-08T01:11:57.336Z,16.13
2023-02-08T01:14:58.954Z,16.13
2023-02-08T01:18:00.878Z,16.13
2023-02-08T01:21:08.067Z,16.13
2023-02-08T01:24:10.846Z,16.12
2023-02-08T01:27:12.372Z,16.10
2023-02-08T01:30:14.007Z,16.11
2023-02-08T01:33:15.549Z,16.10
2023-02-08T01:36:17.546Z,16.09
2023-02-08T01:39:19.067Z,16.08
2023-02-08T01:42:20.581Z,16.07
2023-02-08T01:45:26.454Z,16.07
2023-02-08T01:48:39.282Z,16.08
2023-02-08T01:51:52.121Z,16.07
2023-02-08T01:55:01.929Z,16.07
2023-02-08T01:58:08.564Z,16.06
2023-02-08T02:01:11.550Z,16.05
2023-02-08T02:04:13.404Z,16.03
2023-02-08T02:07:17.029Z,16.04
2023-02-08T02:10:24.871Z,16.04
2023-02-08T02:13:28.076Z,16.02
2023-02-08T02:16:29.773Z,16.01
2023-02-08T02:19:37.282Z,16.01
2023-02-08T02:22:48.185Z,16.03
2023-02-08T02:26:12.745Z,16.02
2023-02-08T02:29:33.042Z,16.02
2023-02-08T02:33:35.427Z,16.01
2023-02-08T02:36:39.965Z,16.00
2023-02-08T02:39:52.563Z,15.99
2023-02-08T02:43:34.421Z,16.00
2023-02-08T02:46:42.737Z,15.98
2023-02-08T02:50:13.259Z,15.97
2023-02-08T02:53:24.630Z,15.96
2023-02-08T02:56:39.243Z,15.97
2023-02-08T02:59:42.882Z,15.95
2023-02-08T03:02:45.015Z,15.94
2023-02-08T03:05:47.208Z,15.94
2023-02-08T03:09:08.680Z,15.94
2023-02-08T03:12:42.011Z,15.92
2023-02-08T03:15:55.745Z,15.92
2023-02-08T03:19:09.744Z,15.92
2023-02-08T03:22:23.336Z,15.92
2023-02-08T03:25:31.256Z,15.91
2023-02-08T03:28:37.142Z,15.92
2023-02-08T03:31:52.962Z,15.91
2023-02-08T03:35:01.564Z,15.90
2023-02-08T03:38:13.254Z,15.90
2023-02-08T03:41:19.310Z,15.89
2023-02-08T03:44:27.149Z,15.88
2023-02-08T03:47:33.775Z,15.88
2023-02-08T03:50:37.726Z,15.88
2023-02-08T03:53:43.261Z,15.87
2023-02-08T03:56:59.831Z,15.86
2023-02-08T04:00:07.929Z,15.86
2023-02-08T04:03:18.253Z,15.86
2023-02-08T04:06:21.059Z,15.84
2023-02-08T04:09:22.523Z,15.86
2023-02-08T04:12:24.048Z,15.88
2023-02-08T04:15:27.279Z,15.89
2023-02-08T04:18:28.838Z,15.92
2023-02-08T04:21:30.388Z,15.92
2023-02-08T04:24:31.914Z,15.94
2023-02-08T04:27:33.393Z,15.96
2023-02-08T04:30:35.680Z,15.97
2023-02-08T04:33:37.169Z,15.98
2023-02-08T04:36:38.690Z,15.99
2023-02-08T04:39:40.238Z,15.99
2023-02-08T04:42:41.746Z,15.99
2023-02-08T04:45:43.244Z,16.00
2023-02-08T04:48:44.847Z,16.02
2023-02-08T04:51:46.330Z,16.02
2023-02-08T04:54:47.849Z,16.00
2023-02-08T04:57:49.297Z,16.01
2023-02-08T05:00:50.806Z,16.02
2023-02-08T05:03:52.280Z,16.02
2023-02-08T05:06:53.741Z,16.02
2023-02-08T05:09:55.208Z,16.01
2023-02-08T05:12:56.737Z,16.02
2023-02-08T05:15:58.300Z,16.01
2023-02-08T05:18:59.773Z,16.00
2023-02-08T05:22:01.468Z,15.99
2023-02-08T05:25:03.221Z,15.99
2023-02-08T05:28:05.747Z,15.97
2023-02-08T05:31:19.902Z,15.96
2023-02-08T05:34:21.453Z,15.94
2023-02-08T05:37:22.970Z,15.92
2023-02-08T05:40:24.657Z,15.90
2023-02-08T05:43:26.247Z,15.91
2023-02-08T05:46:27.798Z,15.89
2023-02-08T05:49:29.515Z,15.89
2023-02-08T05:52:31.049Z,15.89
2023-02-08T05:55:32.570Z,15.89
2023-02-08T05:58:34.103Z,15.89
2023-02-08T06:01:36.180Z,15.89
2023-02-08T06:04:39.125Z,15.91
2023-02-08T06:07:40.757Z,15.92
2023-02-08T06:10:42.436Z,15.94
2023-02-08T06:13:44.067Z,15.96
2023-02-08T06:16:45.660Z,15.99
2023-02-08T06:19:47.190Z,15.99
2023-02-08T06:22:48.762Z,16.00
2023-02-08T06:25:50.858Z,16.02
2023-02-08T06:28:52.371Z,16.03
2023-02-08T06:31:53.984Z,16.03
2023-02-08T06:34:55.709Z,16.05
2023-02-08T06:37:58.688Z,16.04
2023-02-08T06:41:00.219Z,16.05
2023-02-08T06:44:02.381Z,16.04
2023-02-08T06:47:04.371Z,16.03
2023-02-08T06:50:06.451Z,16.02
2023-02-08T06:53:07.948Z,16.01
2023-02-08T06:56:09.532Z,16.01
2023-02-08T06:59:11.036Z,16.00
2023-02-08T07:02:14.685Z,16.00
2023-02-08T07:05:16.327Z,15.96
2023-02-08T07:08:17.809Z,15.94
2023-02-08T07:11:20.539Z,15.93
2023-02-08T07:14:22.006Z,15.91
2023-02-08T07:17:23.539Z,15.91
2023-02-08T07:20:25.111Z,15.90
2023-02-08T07:23:27.112Z,15.90
2023-02-08T07:26:28.623Z,15.87
2023-02-08T07:29:31.460Z,15.88
2023-02-08T07:32:34.779Z,15.86
2023-02-08T07:35:36.335Z,15.87
2023-02-08T07:38:38.448Z,15.86
2023-02-08T07:41:39.988Z,15.86
2023-02-08T07:44:41.521Z,15.86
2023-02-08T07:47:43.014Z,15.84
2023-02-08T07:50:44.576Z,15.84
2023-02-08T07:53:46.063Z,15.84
2023-02-08T07:56:47.720Z,15.83
2023-02-08T07:59:49.267Z,15.83
2023-02-08T08:02:51.107Z,15.82
2023-02-08T08:05:55.017Z,15.81
2023-02-08T08:08:56.638Z,15.80
2023-02-08T08:11:58.146Z,15.80
2023-02-08T08:14:59.639Z,15.81
2023-02-08T08:18:01.144Z,15.81
2023-02-08T08:21:03.705Z,15.81
2023-02-08T08:24:05.450Z,15.82
2023-02-08T08:27:07.568Z,15.82
2023-02-08T08:30:12.753Z,15.82
2023-02-08T08:33:14.410Z,15.80
2023-02-08T08:36:16.339Z,15.82
2023-02-08T08:39:17.792Z,15.80
2023-02-08T08:42:20.408Z,15.80
2023-02-08T08:45:21.942Z,15.80
2023-02-08T08:48:23.458Z,15.81
2023-02-08T08:51:24.924Z,15.80
2023-02-08T08:54:26.380Z,15.81
2023-02-08T08:57:27.867Z,15.83
2023-02-08T09:00:29.421Z,15.83
2023-02-08T09:03:31.138Z,15.83
2023-02-08T09:06:32.700Z,15.83
2023-02-08T09:09:34.794Z,15.82
2023-02-08T09:12:36.603Z,15.83
2023-02-08T09:15:40.145Z,15.84
2023-02-08T09:18:42.602Z,15.82
2023-02-08T09:21:44.514Z,15.81
2023-02-08T09:24:46.151Z,15.82
2023-02-08T09:27:47.597Z,15.81
2023-02-08T09:30:49.106Z,15.82
2023-02-08T09:33:51.667Z,15.84
2023-02-08T09:36:53.209Z,15.84
2023-02-08T09:39:54.808Z,15.83
2023-02-08T09:43:13.174Z,15.85
2023-02-08T09:46:21.742Z,15.84
2023-02-08T09:49:30.860Z,15.86
2023-02-08T09:52:38.692Z,15.87
2023-02-08T09:55:50.197Z,15.88
2023-02-08T09:58:53.116Z,15.90
2023-02-08T10:02:21.238Z,15.94
2023-02-08T10:05:26.182Z,15.94
2023-02-08T10:08:35.248Z,15.97
2023-02-08T10:12:22.614Z,16.01
2023-02-08T10:15:56.369Z,16.05
2023-02-08T10:19:06.816Z,16.06
2023-02-08T10:22:23.434Z,16.10
2023-02-08T10:25:33.297Z,16.12
2023-02-08T10:28:51.361Z,16.15
2023-02-08T10:32:35.120Z,16.16
2023-02-08T10:35:48.380Z,16.18
2023-02-08T10:38:53.013Z,16.19
2023-02-08T10:41:55.191Z,16.19
2023-02-08T10:45:24.276Z,16.20
2023-02-08T10:48:44.738Z,16.22
2023-02-08T10:51:47.290Z,16.22
2023-02-08T10:54:49.067Z,16.21
2023-02-08T10:57:55.657Z,16.23
2023-02-08T11:00:58.350Z,16.25
2023-02-08T11:04:11.191Z,16.26
2023-02-08T11:07:21.388Z,16.29
2023-02-08T11:10:25.095Z,16.30
2023-02-08T11:13:43.116Z,16.33
2023-02-08T11:16:56.062Z,16.35
2023-02-08T11:19:58.886Z,16.35
2023-02-08T11:23:00.944Z,16.36
2023-02-08T11:26:31.586Z,16.38
2023-02-08T11:29:33.183Z,16.36
2023-02-08T11:32:35.398Z,16.35
2023-02-08T11:35:37.762Z,16.34
2023-02-08T11:38:42.686Z,16.36
2023-02-08T11:41:47.329Z,16.35
2023-02-08T11:44:50.460Z,16.35
2023-02-08T11:47:52.524Z,16.34
2023-02-08T11:50:57.827Z,16.36
2023-02-08T11:54:00.550Z,16.37
2023-02-08T11:57:10.400Z,16.39
2023-02-08T12:00:25.375Z,16.40
2023-02-08T12:03:36.105Z,16.41
2023-02-08T12:06:57.038Z,16.40
2023-02-08T12:09:58.611Z,16.39
2023-02-08T12:13:12.231Z,16.38
2023-02-08T12:16:36.588Z,16.35
2023-02-08T12:20:06.854Z,16.34
2023-02-08T12:23:23.737Z,16.34
2023-02-08T12:26:49.592Z,16.36
2023-02-08T12:30:20.637Z,16.35
2023-02-08T12:33:44.926Z,16.32
2023-02-08T12:37:23.433Z,16.31
2023-02-08T12:40:55.145Z,16.31
2023-02-08T12:44:24.774Z,16.31
2023-02-08T12:47:54.779Z,16.29
2023-02-08T12:51:51.083Z,16.27
2023-02-08T12:55:01.568Z,16.25
2023-02-08T12:58:50.302Z,16.24
2023-02-08T13:01:57.153Z,16.25
2023-02-08T13:05:03.964Z,16.24
2023-02-08T13:08:24.168Z,16.26
2023-02-08T13:11:42.797Z,16.29
2023-02-08T13:14:50.455Z,16.28
2023-02-08T13:17:55.605Z,16.29
2023-02-08T13:21:01.882Z,16.29
2023-02-08T13:24:10.417Z,16.30
2023-02-08T13:27:21.616Z,16.29
2023-02-08T13:30:24.091Z,16.29
2023-02-08T13:33:34.663Z,16.31
2023-02-08T13:36:39.807Z,16.31
2023-02-08T13:39:44.596Z,16.31
2023-02-08T13:43:12.140Z,16.32
2023-02-08T13:46:14.314Z,16.31
2023-02-08T13:49:42.522Z,16.32
2023-02-08T13:52:48.492Z,16.32
2023-02-08T13:55:59.556Z,16.35
2023-02-08T13:59:01.629Z,16.34
2023-02-08T14:02:12.155Z,16.35
2023-02-08T14:05:43.005Z,16.36
2023-02-08T14:08:56.842Z,16.37
2023-02-08T14:12:05.949Z,16.38
2023-02-08T14:15:16.415Z,16.37
2023-02-08T14:18:27.808Z,16.37
2023-02-08T14:22:02.868Z,16.34
2023-02-08T14:25:07.913Z,16.29
2023-02-08T14:28:25.279Z,16.32
2023-02-08T14:31:40.457Z,16.29
2023-02-08T14:34:42.058Z,16.27
2023-02-08T14:37:45.020Z,16.26
2023-02-08T14:40:58.921Z,16.26
2023-02-08T14:44:38.607Z,16.25
2023-02-08T14:47:40.506Z,16.22
2023-02-08T14:50:51.960Z,16.22
2023-02-08T14:53:53.398Z,16.20
2023-02-08T14:57:00.275Z,16.19
2023-02-08T15:00:08.477Z,16.19
2023-02-08T15:03:14.675Z,16.19
2023-02-08T15:06:25.966Z,16.18
2023-02-08T15:09:32.641Z,16.16
2023-02-08T15:12:37.437Z,16.14
2023-02-08T15:15:42.541Z,16.13
2023-02-08T15:18:48.595Z,16.13
2023-02-08T15:21:50.193Z,16.12
2023-02-08T15:25:01.547Z,16.11
2023-02-08T15:28:18.378Z,16.11
2023-02-08T15:31:23.170Z,16.10
2023-02-08T15:34:26.410Z,16.09
2023-02-08T15:37:32.669Z,16.10
2023-02-08T15:40:35.047Z,16.09
2023-02-08T15:43:38.346Z,16.08
2023-02-08T15:46:41.750Z,16.09
2023-02-08T15:49:45.757Z,16.10
2023-02-08T15:52:50.065Z,16.11
2023-02-08T15:55:57.689Z,16.12
2023-02-08T15:59:01.461Z,16.14
2023-02-08T16:02:29.918Z,16.16
2023-02-08T16:05:33.514Z,16.17
2023-02-08T16:08:39.730Z,16.18
2023-02-08T16:11:44.170Z,16.19
2023-02-08T16:14:52.491Z,16.21
2023-02-08T16:17:54.385Z,16.22
2023-02-08T16:21:05.408Z,16.24
2023-02-08T16:24:20.308Z,16.25
2023-02-08T16:27:30.154Z,16.26
2023-02-08T16:30:32.304Z,16.28
2023-02-08T16:33:37.223Z,16.28
2023-02-08T16:36:45.306Z,16.32
2023-02-08T16:39:55.471Z,16.33
2023-02-08T16:43:18.101Z,16.32
2023-02-08T16:46:22.292Z,16.31
2023-02-08T16:49:24.320Z,16.32
2023-02-08T16:52:25.835Z,16.29
2023-02-08T16:55:31.659Z,16.28
2023-02-08T16:58:33.255Z,16.27
2023-02-08T17:01:35.648Z,16.27
2023-02-08T17:04:37.174Z,16.24
2023-02-08T17:07:38.677Z,16.24
2023-02-08T17:10:40.160Z,16.23
2023-02-08T17:13:41.628Z,16.21
2023-02-08T17:16:43.852Z,16.22
2023-02-08T17:19:46.911Z,16.22
2023-02-08T17:22:49.271Z,16.21
2023-02-08T17:25:51.437Z,16.21
2023-02-08T17:28:56.855Z,16.21
2023-02-08T17:31:58.317Z,16.22
2023-02-08T17:35:00.525Z,16.22
2023-02-08T17:38:02.048Z,16.21
2023-02-08T17:41:03.965Z,16.23
2023-02-08T17:44:06.006Z,16.22
2023-02-08T17:47:07.465Z,16.22
2023-02-08T17:50:12.345Z,16.22
2023-02-08T17:53:14.146Z,16.23
2023-02-08T17:56:18.591Z,16.23
2023-02-08T17:59:20.074Z,16.24
2023-02-08T18:02:21.662Z,16.24
2023-02-08T18:05:25.303Z,16.27
2023-02-08T18:08:27.546Z,16.27
2023-02-08T18:11:29.024Z,16.27
2023-02-08T18:14:30.695Z,16.28
2023-02-08T18:17:32.987Z,16.28
2023-02-08T18:20:34.470Z,16.29
2023-02-08T18:23:35.973Z,16.30
2023-02-08T18:26:37.589Z,16.34
2023-02-08T18:29:39.044Z,16.35
2023-02-08T18:32:40.538Z,16.37
2023-02-08T18:35:48.390Z,16.39
2023-02-08T18:38:52.259Z,16.41
2023-02-08T18:41:54.594Z,16.43
2023-02-08T18:44:56.207Z,16.43
2023-02-08T18:47:58.728Z,16.45
2023-02-08T18:51:02.809Z,16.47
2023-02-08T18:54:04.335Z,16.49
2023-02-08T18:57:06.238Z,16.51
2023-02-08T19:00:08.453Z,16.53
2023-02-08T19:03:10.038Z,16.55
2023-02-08T19:06:14.669Z,16.58
2023-02-08T19:09:16.206Z,16.56
2023-02-08T19:12:18.893Z,16.58
2023-02-08T19:15:20.340Z,16.58
2023-02-08T19:18:22.245Z,16.58
2023-02-08T19:21:24.050Z,16.59
2023-02-08T19:24:25.587Z,16.57
2023-02-08T19:27:27.239Z,16.53
2023-02-08T19:30:28.878Z,16.50
2023-02-08T19:33:30.460Z,16.49
2023-02-08T19:36:38.084Z,16.49
2023-02-08T19:39:39.702Z,16.46
2023-02-08T19:42:43.687Z,16.46
2023-02-08T19:45:45.703Z,16.44
2023-02-08T19:48:49.163Z,16.44
2023-02-08T19:51:50.665Z,16.43
2023-02-08T19:54:52.924Z,16.40
2023-02-08T19:57:54.408Z,16.41
2023-02-08T20:00:56.234Z,16.42
2023-02-08T20:03:57.788Z,16.41
2023-02-08T20:06:59.268Z,16.42
2023-02-08T20:10:00.938Z,16.42
2023-02-08T20:13:02.387Z,16.41
2023-02-08T20:16:04.183Z,16.41
2023-02-08T20:19:05.812Z,16.40
2023-02-08T20:22:07.519Z,16.40
2023-02-08T20:25:09.087Z,16.39
2023-02-08T20:28:10.594Z,16.38
2023-02-08T20:31:14.092Z,16.38
2023-02-08T20:34:18.492Z,16.38
2023-02-08T20:37:21.060Z,16.37
2023-02-08T20:40:22.528Z,16.36
2023-02-08T20:43:23.975Z,16.37
2023-02-08T20:46:31.022Z,16.38
2023-02-08T20:49:32.708Z,16.36
2023-02-08T20:52:34.337Z,16.35
2023-02-08T20:55:43.656Z,16.34
2023-02-08T20:58:46.088Z,16.34
2023-02-08T21:01:47.669Z,16.34
2023-02-08T21:04:49.227Z,16.33
2023-02-08T21:07:50.719Z,16.32
2023-02-08T21:10:52.208Z,16.32
2023-02-08T21:13:54.986Z,16.32
2023-02-08T21:16:58.713Z,16.33
2023-02-08T21:20:00.265Z,16.30
2023-02-08T21:23:01.738Z,16.32
2023-02-08T21:26:05.495Z,16.34
2023-02-08T21:29:07.354Z,16.34
2023-02-08T21:32:08.883Z,16.33
2023-02-08T21:35:10.837Z,16.33
2023-02-08T21:38:12.297Z,16.33
2023-02-08T21:41:29.054Z,16.34
2023-02-08T21:44:32.942Z,16.33
2023-02-08T21:47:34.488Z,16.32
2023-02-08T21:50:57.161Z,16.32
2023-02-08T21:54:17.106Z,16.30
2023-02-08T21:57:30.206Z,16.32
2023-02-08T22:00:31.720Z,16.29
2023-02-08T22:03:34.406Z,16.29
2023-02-08T22:06:35.931Z,16.29
2023-02-08T22:09:39.603Z,16.27
2023-02-08T22:12:41.845Z,16.27
2023-02-08T22:15:43.382Z,16.26
2023-02-08T22:18:44.827Z,16.24
2023-02-08T22:21:46.329Z,16.23
2023-02-08T22:24:47.798Z,16.22
2023-02-08T22:27:49.406Z,16.21
2023-02-08T22:30:51.275Z,16.21
2023-02-08T22:33:53.559Z,16.19
2023-02-08T22:36:55.197Z,16.18
2023-02-08T22:39:56.726Z,16.18
2023-02-08T22:42:58.294Z,16.16
2023-02-08T22:46:00.617Z,16.17
2023-02-08T22:49:02.486Z,16.17
2023-02-08T22:52:05.534Z,16.16
2023-02-08T22:55:07.634Z,16.15
2023-02-08T22:58:09.151Z,16.16
2023-02-08T23:01:15.851Z,16.15
2023-02-08T23:04:17.358Z,16.15
2023-02-08T23:07:18.915Z,16.14
2023-02-08T23:10:20.438Z,16.13
2023-02-08T23:13:21.938Z,16.12
2023-02-08T23:16:23.820Z,16.12
2023-02-08T23:19:25.706Z,16.12
2023-02-08T23:22:27.228Z,16.10
2023-02-08T23:25:28.737Z,16.10
2023-02-08T23:28:30.291Z,16.09
2023-02-08T23:31:31.878Z,16.08
2023-02-08T23:34:34.703Z,16.09
2023-02-08T23:37:36.376Z,16.08
2023-02-08T23:40:40.860Z,16.09
2023-02-08T23:43:42.806Z,16.08
2023-02-08T23:46:44.327Z,16.06
2023-02-08T23:49:45.862Z,16.07
2023-02-08T23:52:47.362Z,16.05
2023-02-08T23:55:48.840Z,16.06
2023-02-08T23:58:53.732Z,16.06
